This is the latest recevied weather packets stored in our database for station/object KC3WWU. If no packets are shown the sender has not sent any weather packets the latest 10 day(s).
| Time | Temp. | Humidity | Pressure | Rain* | Wind** | Luminosity | Snow |
|---|---|---|---|---|---|---|---|
| 1777921817 | 21.11° C | 47% | 1007 hPa | 0 mm | - | 695 W/m² | - |
| 1777921514 | 20.56° C | 47% | 1007 hPa | 0 mm | - | 734 W/m² | - |
| 1777921210 | 20° C | 48% | 1006.7 hPa | 0 mm | - | 649 W/m² | - |
| 1777920907 | 21.11° C | 46% | 1007.1 hPa | 0 mm | - | 743 W/m² | - |
| 1777920603 | 21.67° C | 48% | 1006.8 hPa | 0 mm | - | 215 W/m² | - |
| 1777920299 | 21.11° C | 44% | 1006.8 hPa | 0 mm | - | 744 W/m² | - |
| 1777919995 | 20.56° C | 48% | 1007.1 hPa | 0 mm | - | 634 W/m² | - |
| 1777919692 | 20.56° C | 48% | 1007 hPa | 0 mm | - | 735 W/m² | - |
| 1777919390 | 21.11° C | 47% | 1007.1 hPa | 0 mm | - | 731 W/m² | - |
| 1777919086 | 21.11° C | 47% | 1007 hPa | 0 mm | - | 733 W/m² | - |
| 1777918784 | 20° C | 46% | 1007.1 hPa | 0 mm | - | 732 W/m² | - |
| 1777918481 | 20.56° C | 46% | 1007.1 hPa | 0 mm | - | 733 W/m² | - |
| 1777918179 | 20.56° C | 49% | 1007.3 hPa | 0 mm | - | 739 W/m² | - |
| 1777917878 | 21.11° C | 46% | 1007.4 hPa | 0 mm | - | 739 W/m² | - |
| 1777917576 | 20.56° C | 45% | 1007.4 hPa | 0 mm | - | 741 W/m² | - |
| 1777917272 | 20.56° C | 46% | 1007.3 hPa | 0 mm | - | 757 W/m² | - |
| 1777916970 | 20° C | 46% | 1007.6 hPa | 0 mm | - | 749 W/m² | - |
| 1777916668 | 20° C | 47% | 1007.5 hPa | 0 mm | - | 747 W/m² | - |
| 1777916365 | 20° C | 45% | 1007.5 hPa | 0 mm | - | 751 W/m² | - |
| 1777916061 | 20.56° C | 45% | 1007.8 hPa | 0 mm | - | 765 W/m² | - |
| 1777915759 | 20° C | 46% | 1007.8 hPa | 0 mm | - | 761 W/m² | - |
| 1777915455 | 19.44° C | 46% | 1007.7 hPa | 0 mm | - | 756 W/m² | - |
| 1777915151 | 19.44° C | 47% | 1007.8 hPa | 0 mm | - | 758 W/m² | - |
| 1777914848 | 19.44° C | 48% | 1007.8 hPa | 0 mm | - | 752 W/m² | - |
| 1777914545 | 19.44° C | 47% | 1007.9 hPa | 0 mm | - | 753 W/m² | - |
* Rain latest hour (hover to see other rain measurements)
** Current wind speed in m/s (hover to see current wind gust speed)